createdAt,value
2023-05-22T00:00:13.358Z,689.00
2023-05-22T00:02:43.308Z,685.72
2023-05-22T00:05:14.704Z,698.42
2023-05-22T00:07:44.256Z,699.70
2023-05-22T00:10:10.919Z,697.25
2023-05-22T00:12:37.779Z,706.92
2023-05-22T00:15:04.682Z,675.72
2023-05-22T00:17:31.145Z,681.88
2023-05-22T00:20:04.470Z,674.90
2023-05-22T00:22:31.564Z,659.50
2023-05-22T00:24:58.174Z,657.45
2023-05-22T00:27:24.778Z,657.03
2023-05-22T00:29:51.304Z,640.75
2023-05-22T00:32:17.728Z,642.20
2023-05-22T00:34:44.172Z,637.70
2023-05-22T00:37:10.836Z,639.65
2023-05-22T00:39:37.231Z,644.22
2023-05-22T00:42:03.908Z,632.40
2023-05-22T00:44:30.320Z,628.75
2023-05-22T00:46:57.066Z,623.38
2023-05-22T00:49:23.520Z,622.60
2023-05-22T00:51:50.221Z,649.40
2023-05-22T00:54:17.131Z,654.28
2023-05-22T00:56:43.780Z,647.53
2023-05-22T00:59:10.263Z,667.85
2023-05-22T01:01:41.912Z,641.58
2023-05-22T01:04:12.660Z,642.35
2023-05-22T01:06:41.262Z,642.70
2023-05-22T01:09:08.080Z,638.97
2023-05-22T01:12:07.524Z,649.45
2023-05-22T01:14:41.985Z,633.10
2023-05-22T01:17:24.410Z,644.63
2023-05-22T01:19:53.948Z,636.17
2023-05-22T01:22:58.375Z,666.50
2023-05-22T01:26:05.689Z,634.50
2023-05-22T01:28:50.771Z,619.65
2023-05-22T01:31:19.168Z,618.22
2023-05-22T01:33:49.015Z,643.13
2023-05-22T01:36:20.212Z,659.42
2023-05-22T01:38:47.256Z,624.30
2023-05-22T01:41:14.153Z,639.17
2023-05-22T01:43:41.705Z,627.67
2023-05-22T01:46:08.205Z,635.28
2023-05-22T01:48:35.858Z,645.58
2023-05-22T01:51:12.017Z,640.22
2023-05-22T01:53:48.237Z,650.20
2023-05-22T01:56:20.854Z,634.58
2023-05-22T01:59:01.514Z,642.38
2023-05-22T02:01:32.074Z,647.65
2023-05-22T02:03:59.285Z,645.65
2023-05-22T02:06:28.656Z,655.47
2023-05-22T02:08:55.754Z,649.78
2023-05-22T02:11:26.824Z,641.97
2023-05-22T02:13:53.263Z,641.00
2023-05-22T02:16:22.083Z,642.13
2023-05-22T02:18:48.638Z,657.60
2023-05-22T02:21:15.031Z,663.45
2023-05-22T02:23:41.492Z,670.15
2023-05-22T02:26:08.066Z,667.47
2023-05-22T02:28:34.538Z,675.88
2023-05-22T02:31:02.672Z,678.20
2023-05-22T02:33:29.878Z,683.42
2023-05-22T02:35:56.239Z,674.78
2023-05-22T02:38:22.783Z,673.13
2023-05-22T02:40:49.709Z,705.72
2023-05-22T02:43:16.076Z,718.50
2023-05-22T02:45:42.441Z,740.28
2023-05-22T02:48:08.897Z,734.53
2023-05-22T02:50:35.374Z,741.63
2023-05-22T02:53:01.750Z,729.47
2023-05-22T02:55:28.131Z,734.78
2023-05-22T02:57:54.534Z,743.70
2023-05-22T03:00:22.507Z,753.25
2023-05-22T03:02:49.163Z,757.00
2023-05-22T03:05:17.723Z,769.13
2023-05-22T03:07:48.140Z,766.15
2023-05-22T03:10:15.181Z,761.33
2023-05-22T03:12:41.582Z,753.60
2023-05-22T03:15:08.592Z,790.08
2023-05-22T03:17:35.036Z,764.35
2023-05-22T03:20:01.471Z,796.83
2023-05-22T03:22:27.872Z,792.72
2023-05-22T03:24:54.323Z,791.13
2023-05-22T03:27:21.215Z,785.17
2023-05-22T03:29:47.654Z,776.28
2023-05-22T03:32:14.184Z,791.42
2023-05-22T03:34:41.055Z,786.28
2023-05-22T03:37:08.948Z,804.67
2023-05-22T03:39:36.034Z,797.63
2023-05-22T03:42:02.490Z,809.17
2023-05-22T03:44:28.922Z,802.05
2023-05-22T03:46:55.369Z,800.92
2023-05-22T03:49:21.779Z,808.50
2023-05-22T03:51:48.151Z,822.63
2023-05-22T03:54:14.540Z,790.58
2023-05-22T03:56:40.951Z,783.30
2023-05-22T03:59:07.417Z,810.83
2023-05-22T04:01:33.799Z,792.22
2023-05-22T04:04:00.825Z,776.22
2023-05-22T04:06:27.227Z,786.90
2023-05-22T04:08:53.659Z,753.75
2023-05-22T04:11:20.929Z,762.72
2023-05-22T04:13:49.241Z,804.83
2023-05-22T04:16:17.427Z,796.15
2023-05-22T04:18:44.340Z,799.08
2023-05-22T04:21:10.778Z,800.22
2023-05-22T04:23:38.501Z,780.42
2023-05-22T04:26:04.929Z,818.67
2023-05-22T04:28:31.430Z,791.97
2023-05-22T04:30:57.883Z,808.47
2023-05-22T04:33:28.865Z,796.60
2023-05-22T04:35:55.241Z,805.53
2023-05-22T04:38:21.845Z,818.58
2023-05-22T04:40:48.377Z,818.88
2023-05-22T04:43:14.764Z,834.35
2023-05-22T04:45:42.271Z,848.92
2023-05-22T04:48:08.794Z,858.58
2023-05-22T04:50:35.972Z,855.08
2023-05-22T04:53:04.213Z,859.25
2023-05-22T04:55:33.886Z,867.53
2023-05-22T04:58:00.397Z,874.63
2023-05-22T05:00:28.649Z,903.72
2023-05-22T05:02:55.288Z,907.60
2023-05-22T05:05:21.792Z,914.50
2023-05-22T05:07:50.285Z,914.17
2023-05-22T05:10:17.038Z,939.40
2023-05-22T05:12:43.663Z,924.10
2023-05-22T05:15:10.455Z,924.92
2023-05-22T05:17:37.103Z,937.85
2023-05-22T05:20:06.950Z,937.22
2023-05-22T05:22:33.724Z,932.10
2023-05-22T05:25:00.166Z,923.15
2023-05-22T05:27:26.547Z,922.45
2023-05-22T05:29:52.916Z,925.80
2023-05-22T05:32:43.583Z,906.28
2023-05-22T05:35:26.475Z,849.20
2023-05-22T05:37:53.025Z,872.55
2023-05-22T05:40:19.576Z,876.83
2023-05-22T05:42:45.955Z,884.20
2023-05-22T05:45:13.249Z,880.72
2023-05-22T05:47:40.609Z,849.80
2023-05-22T05:50:07.467Z,853.20
2023-05-22T05:52:34.120Z,857.65
2023-05-22T05:55:03.626Z,861.75
2023-05-22T05:57:30.973Z,839.13
2023-05-22T05:59:57.406Z,793.95
2023-05-22T06:02:24.404Z,816.42
2023-05-22T06:04:50.937Z,832.65
2023-05-22T06:07:17.507Z,839.10
2023-05-22T06:09:44.116Z,826.85
2023-05-22T06:12:13.449Z,834.35
2023-05-22T06:14:42.777Z,858.03
2023-05-22T06:17:09.273Z,877.30
2023-05-22T06:19:35.863Z,849.33
2023-05-22T06:22:02.466Z,852.97
2023-05-22T06:24:28.944Z,872.13
2023-05-22T06:26:55.455Z,869.88
2023-05-22T06:29:22.845Z,851.83
2023-05-22T06:31:52.328Z,830.17
2023-05-22T06:34:22.498Z,848.88
2023-05-22T06:36:52.202Z,851.40
2023-05-22T06:39:19.083Z,820.13
2023-05-22T06:41:45.552Z,810.75
2023-05-22T06:44:12.861Z,847.13
2023-05-22T06:46:39.459Z,798.70
2023-05-22T06:49:06.219Z,818.83
2023-05-22T06:51:34.370Z,816.22
2023-05-22T06:54:00.913Z,792.08
2023-05-22T06:56:27.391Z,776.60
2023-05-22T06:58:53.830Z,752.95
2023-05-22T07:01:20.629Z,766.67
2023-05-22T07:03:47.031Z,769.00
2023-05-22T07:06:13.476Z,795.55
2023-05-22T07:08:39.935Z,762.90
2023-05-22T07:11:07.672Z,762.85
2023-05-22T07:13:34.101Z,757.83
2023-05-22T07:16:00.810Z,743.10
2023-05-22T07:18:27.257Z,741.72
2023-05-22T07:20:53.727Z,745.38
2023-05-22T07:23:20.167Z,760.97
2023-05-22T07:25:46.598Z,752.13
2023-05-22T07:28:13.102Z,748.30
2023-05-22T07:30:39.893Z,764.13
2023-05-22T07:33:06.762Z,760.22
2023-05-22T07:35:33.564Z,769.30
2023-05-22T07:38:00.057Z,750.65
2023-05-22T07:40:27.342Z,753.38
2023-05-22T07:42:53.877Z,762.53
2023-05-22T07:45:22.009Z,713.75
2023-05-22T07:47:48.572Z,767.50
2023-05-22T07:50:14.995Z,772.70
2023-05-22T07:52:41.457Z,767.50
2023-05-22T07:55:08.496Z,760.05
2023-05-22T07:57:36.151Z,710.47
2023-05-22T08:00:09.416Z,734.30
2023-05-22T08:02:36.586Z,707.85
2023-05-22T08:05:04.459Z,741.47
2023-05-22T08:07:32.876Z,781.30
2023-05-22T08:10:02.419Z,766.90
2023-05-22T08:12:28.957Z,781.55
2023-05-22T08:14:55.492Z,754.10
2023-05-22T08:17:21.972Z,752.17
2023-05-22T08:19:48.800Z,732.92
2023-05-22T08:22:15.286Z,743.35
2023-05-22T08:24:41.729Z,729.95
2023-05-22T08:27:08.102Z,745.63
2023-05-22T08:29:38.503Z,717.42
2023-05-22T08:32:05.800Z,717.97
2023-05-22T08:34:33.036Z,702.90
2023-05-22T08:36:59.991Z,690.38
2023-05-22T08:39:26.472Z,716.65
2023-05-22T08:41:53.064Z,698.38
2023-05-22T08:44:20.460Z,685.33
2023-05-22T08:47:00.219Z,710.22
2023-05-22T08:49:26.992Z,666.60
2023-05-22T08:51:57.132Z,671.25
2023-05-22T08:54:26.290Z,680.78
2023-05-22T08:56:57.161Z,665.97
2023-05-22T08:59:24.828Z,683.55
2023-05-22T09:01:52.752Z,692.33
2023-05-22T09:04:23.561Z,657.78
2023-05-22T09:06:50.739Z,650.90
2023-05-22T09:09:17.882Z,673.90
2023-05-22T09:11:44.360Z,644.78
2023-05-22T09:14:11.567Z,674.65
2023-05-22T09:16:46.655Z,677.53
2023-05-22T09:19:14.939Z,667.75
2023-05-22T09:21:43.286Z,658.97
2023-05-22T09:24:13.896Z,681.30
2023-05-22T09:26:41.084Z,653.08
2023-05-22T09:29:07.972Z,663.22
2023-05-22T09:31:42.605Z,663.08
2023-05-22T09:34:10.746Z,670.78
2023-05-22T09:36:37.162Z,692.63
2023-05-22T09:39:04.695Z,690.95
2023-05-22T09:41:35.228Z,677.10
2023-05-22T09:44:02.265Z,656.63
2023-05-22T09:46:29.596Z,644.22
2023-05-22T09:48:56.064Z,667.38
2023-05-22T09:51:26.551Z,666.70
2023-05-22T09:54:01.136Z,666.45
2023-05-22T09:56:38.655Z,654.03
2023-05-22T09:59:09.475Z,651.85
2023-05-22T10:01:38.496Z,670.40
2023-05-22T10:04:06.924Z,686.03
2023-05-22T10:06:34.706Z,671.50
2023-05-22T10:09:09.121Z,664.03
2023-05-22T10:11:47.792Z,663.10
2023-05-22T10:14:15.742Z,643.90
2023-05-22T10:16:44.888Z,682.22
2023-05-22T10:19:12.854Z,657.22
2023-05-22T10:21:41.450Z,683.20
2023-05-22T10:24:09.944Z,683.17
2023-05-22T10:26:37.338Z,668.20
2023-05-22T10:29:14.677Z,668.47
2023-05-22T10:31:53.727Z,662.35
2023-05-22T10:35:10.843Z,686.97
2023-05-22T10:37:56.574Z,650.95
2023-05-22T10:40:29.258Z,672.33
2023-05-22T10:43:03.995Z,682.65
2023-05-22T10:45:31.417Z,678.33
2023-05-22T10:48:09.456Z,685.80
2023-05-22T10:50:36.280Z,667.95
2023-05-22T10:53:28.199Z,666.28
2023-05-22T10:55:56.858Z,663.22
2023-05-22T10:58:29.244Z,669.58
2023-05-22T11:01:11.678Z,698.95
2023-05-22T11:04:03.188Z,676.97
2023-05-22T11:06:31.175Z,681.28
2023-05-22T11:08:57.674Z,690.85
2023-05-22T11:11:30.449Z,688.45
2023-05-22T11:14:03.651Z,692.28
2023-05-22T11:16:33.706Z,686.45
2023-05-22T11:19:22.084Z,697.85
2023-05-22T11:21:50.129Z,691.55
2023-05-22T11:24:18.058Z,711.45
2023-05-22T11:26:44.736Z,700.40
2023-05-22T11:29:11.129Z,697.60
2023-05-22T11:31:38.622Z,706.50
2023-05-22T11:34:05.300Z,704.10
2023-05-22T11:36:32.316Z,667.75
2023-05-22T11:39:02.052Z,648.22
2023-05-22T11:41:34.167Z,691.50
2023-05-22T11:44:01.489Z,651.53
2023-05-22T11:46:28.126Z,631.63
2023-05-22T11:48:54.788Z,681.28
2023-05-22T11:51:21.568Z,660.60
2023-05-22T11:53:48.317Z,631.45
2023-05-22T11:56:14.808Z,496.27
2023-05-22T11:58:41.195Z,663.00
2023-05-22T12:01:07.600Z,631.50
2023-05-22T12:03:34.277Z,525.88
2023-05-22T12:06:01.789Z,388.67
2023-05-22T12:08:28.539Z,359.15
2023-05-22T12:10:55.409Z,397.27
2023-05-22T12:13:29.764Z,331.17
2023-05-22T12:18:39.095Z,327.10
2023-05-22T12:21:06.577Z,351.55
2023-05-22T12:23:32.972Z,331.05
2023-05-22T12:26:01.130Z,486.88
2023-05-22T12:28:28.333Z,619.13
2023-05-22T12:30:56.096Z,207.68
2023-05-22T12:33:29.438Z,208.13
2023-05-22T12:35:58.552Z,292.70
2023-05-22T12:38:26.992Z,470.13
2023-05-22T12:40:54.900Z,291.80
2023-05-22T12:43:23.478Z,262.83
2023-05-22T12:45:50.035Z,227.52
2023-05-22T12:48:16.789Z,434.40
2023-05-22T12:50:44.448Z,243.13
2023-05-22T12:53:10.860Z,586.72
2023-05-22T12:55:38.246Z,340.75
2023-05-22T12:58:05.234Z,217.00
2023-05-22T13:00:32.276Z,295.15
2023-05-22T13:03:07.605Z,276.20
2023-05-22T13:05:33.995Z,358.58
2023-05-22T13:08:00.468Z,442.23
2023-05-22T13:10:26.965Z,233.90
2023-05-22T13:12:53.444Z,452.98
2023-05-22T13:15:19.910Z,380.75
2023-05-22T13:17:46.329Z,247.88
2023-05-22T13:20:13.410Z,326.85
2023-05-22T13:22:40.583Z,374.92
2023-05-22T13:25:07.349Z,540.13
2023-05-22T13:27:34.157Z,301.55
2023-05-22T13:30:00.627Z,268.27
2023-05-22T13:32:27.202Z,325.10
2023-05-22T13:34:53.647Z,234.93
2023-05-22T13:37:20.133Z,466.23
2023-05-22T13:39:46.680Z,251.45
2023-05-22T13:42:13.228Z,267.83
2023-05-22T13:44:39.616Z,218.75
2023-05-22T13:47:06.093Z,234.85
2023-05-22T13:49:32.601Z,396.25
2023-05-22T13:51:59.230Z,194.32
2023-05-22T13:54:25.832Z,161.18
2023-05-22T13:56:52.258Z,191.77
2023-05-22T13:59:18.744Z,265.40
2023-05-22T14:01:45.245Z,158.80
2023-05-22T14:04:11.726Z,225.73
2023-05-22T14:06:38.233Z,456.15
2023-05-22T14:09:07.135Z,501.95
2023-05-22T14:11:34.112Z,436.92
2023-05-22T14:14:00.654Z,505.13
2023-05-22T14:16:27.283Z,355.13
2023-05-22T14:18:53.823Z,522.78
2023-05-22T14:21:20.790Z,479.85
2023-05-22T14:23:47.304Z,566.00
2023-05-22T14:26:14.465Z,469.95
2023-05-22T14:28:41.708Z,447.52
2023-05-22T14:31:08.141Z,502.67
2023-05-22T14:33:35.725Z,336.13
2023-05-22T14:36:02.486Z,232.60
2023-05-22T14:38:33.763Z,235.60
2023-05-22T14:41:03.350Z,281.80
2023-05-22T14:43:29.897Z,267.77
2023-05-22T14:45:57.924Z,437.92
2023-05-22T14:48:26.472Z,300.25
2023-05-22T14:50:56.065Z,305.17
2023-05-22T14:53:23.322Z,362.77
2023-05-22T14:55:49.767Z,296.70
2023-05-22T14:58:16.219Z,124.40
2023-05-22T15:00:42.747Z,204.43
2023-05-22T15:03:09.264Z,218.38
2023-05-22T15:05:35.923Z,163.20
2023-05-22T15:08:02.445Z,294.65
2023-05-22T15:10:28.959Z,271.33
2023-05-22T15:12:55.391Z,488.92
2023-05-22T15:15:21.935Z,251.50
2023-05-22T15:17:48.351Z,184.35
2023-05-22T15:20:14.916Z,236.77
2023-05-22T15:22:41.383Z,222.98
2023-05-22T15:25:11.473Z,363.55
2023-05-22T15:27:39.361Z,168.75
2023-05-22T15:30:06.724Z,141.38
2023-05-22T15:32:33.210Z,237.77
2023-05-22T15:34:59.862Z,220.57
2023-05-22T15:37:26.995Z,274.20
2023-05-22T15:39:53.407Z,280.45
2023-05-22T15:42:20.034Z,196.27
2023-05-22T15:44:46.500Z,339.75
2023-05-22T15:47:13.001Z,127.60
2023-05-22T15:49:39.501Z,212.43
2023-05-22T15:52:06.095Z,240.00
2023-05-22T15:54:32.557Z,218.45
2023-05-22T15:56:59.082Z,218.98
2023-05-22T15:59:25.599Z,261.05
2023-05-22T16:01:52.017Z,369.85
2023-05-22T16:04:18.454Z,371.95
2023-05-22T16:06:45.012Z,500.25
2023-05-22T16:09:11.434Z,555.03
2023-05-22T16:11:37.934Z,564.40
2023-05-22T16:14:04.779Z,598.40
2023-05-22T16:16:31.262Z,560.00
2023-05-22T16:18:57.686Z,649.90
2023-05-22T16:21:24.218Z,595.75
2023-05-22T16:23:50.750Z,642.03
2023-05-22T16:26:17.130Z,727.38
2023-05-22T16:28:43.667Z,500.85
2023-05-22T16:31:10.216Z,562.15
2023-05-22T16:33:37.488Z,683.45
2023-05-22T16:36:04.543Z,652.85
2023-05-22T16:38:31.165Z,705.95
2023-05-22T16:40:57.982Z,654.40
2023-05-22T16:43:24.625Z,691.13
2023-05-22T16:45:51.320Z,680.85
2023-05-22T16:48:18.161Z,688.05
2023-05-22T16:50:46.653Z,674.42
2023-05-22T16:53:13.705Z,644.97
2023-05-22T16:55:40.400Z,732.42
2023-05-22T16:58:07.135Z,786.15
2023-05-22T17:00:33.718Z,677.00
2023-05-22T17:03:00.609Z,695.67
2023-05-22T17:05:27.062Z,709.40
2023-05-22T17:07:53.488Z,697.83
2023-05-22T17:10:19.959Z,732.22
2023-05-22T17:12:46.460Z,721.80
2023-05-22T17:15:12.881Z,729.30
2023-05-22T17:17:39.422Z,735.60
2023-05-22T17:20:07.237Z,743.78
2023-05-22T17:22:36.051Z,831.75
2023-05-22T17:25:02.717Z,849.92
2023-05-22T17:27:35.972Z,782.75
2023-05-22T17:30:04.775Z,808.28
2023-05-22T17:32:31.585Z,795.70
2023-05-22T17:34:58.528Z,803.38
2023-05-22T17:37:24.932Z,892.22
2023-05-22T17:39:51.682Z,702.55
2023-05-22T17:42:18.134Z,697.78
2023-05-22T17:44:44.604Z,605.95
2023-05-22T17:47:11.290Z,668.40
2023-05-22T17:49:37.808Z,663.42
2023-05-22T17:52:04.384Z,664.92
2023-05-22T17:54:35.292Z,773.22
2023-05-22T17:57:04.034Z,706.65
2023-05-22T17:59:32.036Z,834.25
2023-05-22T18:01:58.831Z,759.08
2023-05-22T18:04:25.380Z,707.13
2023-05-22T18:06:52.256Z,782.33
2023-05-22T18:09:18.811Z,795.50
2023-05-22T18:11:45.242Z,822.38
2023-05-22T18:14:11.745Z,799.25
2023-05-22T18:16:38.255Z,806.95
2023-05-22T18:19:04.753Z,766.88
2023-05-22T18:21:32.128Z,796.28
2023-05-22T18:23:58.729Z,732.22
2023-05-22T18:26:26.628Z,761.53
2023-05-22T18:28:53.169Z,770.42
2023-05-22T18:31:19.778Z,823.70
2023-05-22T18:33:46.694Z,834.22
2023-05-22T18:36:13.158Z,811.28
2023-05-22T18:38:39.747Z,860.33
2023-05-22T18:41:06.636Z,881.95
2023-05-22T18:43:33.648Z,872.20
2023-05-22T18:46:00.312Z,870.10
2023-05-22T18:48:28.129Z,870.03
2023-05-22T18:50:57.639Z,892.42
2023-05-22T18:53:25.301Z,910.20
2023-05-22T18:55:52.545Z,905.00
2023-05-22T18:58:19.278Z,864.83
2023-05-22T19:00:46.010Z,896.00
2023-05-22T19:03:12.568Z,862.42
2023-05-22T19:05:39.041Z,796.63
2023-05-22T19:08:06.122Z,812.40
2023-05-22T19:10:33.030Z,787.85
2023-05-22T19:12:59.591Z,823.47
2023-05-22T19:15:26.123Z,748.63
2023-05-22T19:17:52.670Z,735.33
2023-05-22T19:20:19.179Z,713.40
2023-05-22T19:22:45.692Z,775.38
2023-05-22T19:25:12.452Z,784.47
2023-05-22T19:27:39.406Z,754.97
2023-05-22T19:30:06.789Z,746.17
2023-05-22T19:32:33.269Z,774.90
2023-05-22T19:34:59.695Z,784.67
2023-05-22T19:37:26.124Z,776.00
2023-05-22T19:39:54.108Z,797.30
2023-05-22T19:42:20.523Z,734.28
2023-05-22T19:44:47.036Z,740.92
2023-05-22T19:47:13.419Z,764.22
2023-05-22T19:49:39.840Z,799.42
2023-05-22T19:52:06.662Z,781.78
2023-05-22T19:54:33.109Z,769.53
2023-05-22T19:56:59.611Z,779.15
2023-05-22T19:59:26.902Z,763.03
2023-05-22T20:01:53.954Z,791.00
2023-05-22T20:04:21.382Z,781.03
2023-05-22T20:06:48.414Z,759.45
2023-05-22T20:09:15.326Z,755.15
2023-05-22T20:11:41.775Z,799.22
2023-05-22T20:14:08.358Z,748.03
2023-05-22T20:16:34.961Z,737.10
2023-05-22T20:19:02.518Z,720.22
2023-05-22T20:21:29.003Z,759.25
2023-05-22T20:23:55.584Z,724.08
2023-05-22T20:26:22.108Z,785.65
2023-05-22T20:28:48.600Z,720.72
2023-05-22T20:31:15.156Z,733.33
2023-05-22T20:33:41.689Z,685.90
2023-05-22T20:36:08.575Z,724.70
2023-05-22T20:38:35.155Z,678.88
2023-05-22T20:41:02.491Z,752.38
2023-05-22T20:43:30.642Z,721.78
2023-05-22T20:45:57.361Z,688.97
2023-05-22T20:48:23.995Z,697.45
2023-05-22T20:50:50.708Z,727.85
2023-05-22T20:53:17.534Z,692.50
2023-05-22T20:55:44.117Z,727.28
2023-05-22T20:58:10.619Z,728.08
2023-05-22T21:00:37.332Z,636.60
2023-05-22T21:03:03.755Z,677.75
2023-05-22T21:05:30.443Z,666.92
2023-05-22T21:07:57.907Z,653.50
2023-05-22T21:10:24.477Z,690.85
2023-05-22T21:12:50.862Z,558.50
2023-05-22T21:15:17.496Z,663.92
2023-05-22T21:17:44.068Z,653.97
2023-05-22T21:20:10.918Z,685.17
2023-05-22T21:22:37.351Z,643.05
2023-05-22T21:25:04.121Z,621.30
2023-05-22T21:27:30.913Z,637.30
2023-05-22T21:30:13.368Z,625.13
2023-05-22T21:32:39.779Z,630.70
2023-05-22T21:35:06.766Z,549.42
2023-05-22T21:37:33.129Z,608.40
2023-05-22T21:39:59.596Z,659.05
2023-05-22T21:42:26.360Z,654.08
2023-05-22T21:44:52.774Z,670.05
2023-05-22T21:47:19.212Z,631.33
2023-05-22T21:49:45.747Z,602.80
2023-05-22T21:52:12.129Z,633.45
2023-05-22T21:54:39.430Z,598.25
2023-05-22T21:57:06.243Z,615.63
2023-05-22T21:59:32.651Z,593.55
2023-05-22T22:01:59.054Z,653.55
2023-05-22T22:04:25.509Z,651.85
2023-05-22T22:06:51.893Z,640.97
2023-05-22T22:09:18.257Z,589.88
2023-05-22T22:11:44.650Z,596.67
2023-05-22T22:14:11.144Z,567.38
2023-05-22T22:16:37.738Z,549.72
2023-05-22T22:19:04.746Z,534.65
2023-05-22T22:21:33.370Z,534.63
2023-05-22T22:23:59.770Z,472.98
2023-05-22T22:26:30.532Z,534.67
2023-05-22T22:28:57.525Z,528.83
2023-05-22T22:31:24.411Z,548.40
2023-05-22T22:33:50.953Z,541.30
2023-05-22T22:36:17.506Z,581.28
2023-05-22T22:38:43.952Z,570.90
2023-05-22T22:41:10.572Z,589.25
2023-05-22T22:43:36.994Z,562.38
2023-05-22T22:46:03.404Z,573.65
2023-05-22T22:48:29.815Z,620.08
2023-05-22T22:50:56.360Z,619.05
2023-05-22T22:53:22.763Z,585.53
2023-05-22T22:55:55.743Z,601.65
2023-05-22T22:58:22.470Z,590.63
2023-05-22T23:00:48.938Z,604.10
2023-05-22T23:03:15.542Z,597.00
2023-05-22T23:05:42.284Z,607.08
2023-05-22T23:08:08.914Z,605.80
2023-05-22T23:10:35.453Z,590.08
2023-05-22T23:13:01.807Z,569.50
2023-05-22T23:15:28.330Z,533.75
2023-05-22T23:17:54.726Z,553.67
2023-05-22T23:20:21.251Z,538.17
2023-05-22T23:22:47.691Z,533.17
2023-05-22T23:25:14.111Z,538.05
2023-05-22T23:27:40.483Z,565.45
2023-05-22T23:30:08.030Z,526.60
2023-05-22T23:32:34.428Z,529.88
2023-05-22T23:35:00.996Z,510.85
2023-05-22T23:37:27.457Z,498.05
2023-05-22T23:39:54.316Z,535.83
2023-05-22T23:42:20.883Z,532.33
2023-05-22T23:44:47.494Z,537.75
2023-05-22T23:47:13.938Z,548.53
2023-05-22T23:49:40.336Z,570.85
2023-05-22T23:52:07.959Z,575.67
2023-05-22T23:54:34.331Z,587.95
2023-05-22T23:57:00.766Z,563.75
2023-05-22T23:59:27.266Z,575.72
